Time;durP1;ratioP1;P1;durP2;ratioP2;P2;SDS_P1;SDS_P2;PMS_P1;PMS_P2;Temp;Humidity;BMP_temperature;BMP_pressure;BME280_temperature;BME280_humidity;BME280_pressure;Samples;Min_cycle;Max_cycle;Signal;HPM_P1;HPM_P2
2023/06/28 00:01:38;;;;;;;3.95;2.13;;;13.70;99.90;;;;;;5017980;28;20138;-82
2023/06/28 00:04:05;;;;;;;3.95;1.55;;;13.70;99.90;;;;;;5018118;28;20046;-82
2023/06/28 00:06:31;;;;;;;5.72;1.65;;;13.60;99.90;;;;;;5013948;28;20057;-82
2023/06/28 00:08:59;;;;;;;4.90;2.00;;;13.50;99.90;;;;;;5015637;28;20068;-82
2023/06/28 00:11:27;;;;;;;6.45;1.60;;;13.40;99.90;;;;;;5015089;28;20046;-81
2023/06/28 00:13:53;;;;;;;4.25;1.55;;;13.20;99.90;;;;;;5017644;28;20095;-82
2023/06/28 00:16:19;;;;;;;6.43;1.55;;;13.20;99.90;;;;;;5022936;28;20483;-81
2023/06/28 00:18:45;;;;;;;4.22;1.95;;;13.20;99.90;;;;;;5020632;28;20501;-82
2023/06/28 00:21:14;;;;;;;9.30;2.63;;;13.10;99.90;;;;;;5015211;28;20622;-82
2023/06/28 00:23:40;;;;;;;5.65;2.00;;;13.00;99.90;;;;;;5018260;28;20042;-82
2023/06/28 00:26:06;;;;;;;4.68;2.13;;;13.00;99.90;;;;;;5020012;28;20136;-82
2023/06/28 00:28:32;;;;;;;4.68;1.63;;;13.10;99.90;;;;;;5020349;28;20148;-81
2023/06/28 00:30:57;;;;;;;4.65;1.63;;;13.20;99.90;;;;;;5014749;28;20042;-82
2023/06/28 00:33:23;;;;;;;6.82;2.33;;;13.10;99.90;;;;;;5019850;28;20053;-81
2023/06/28 00:35:49;;;;;;;6.35;1.90;;;13.10;99.90;;;;;;5018804;28;20108;-82
2023/06/28 00:38:14;;;;;;;5.13;1.85;;;13.10;99.90;;;;;;5014858;28;20084;-82
2023/06/28 00:40:40;;;;;;;10.88;1.75;;;13.00;99.90;;;;;;5016210;28;20486;-82
2023/06/28 00:43:05;;;;;;;10.77;2.40;;;13.00;99.90;;;;;;5018070;28;20195;-82
2023/06/28 00:45:31;;;;;;;6.90;2.08;;;13.00;99.90;;;;;;5010491;28;20080;-82
2023/06/28 00:47:57;;;;;;;13.07;2.53;;;12.90;99.90;;;;;;5016714;28;20054;-82
2023/06/28 00:50:24;;;;;;;6.35;2.22;;;13.00;99.90;;;;;;5018547;28;20531;-82
2023/06/28 00:52:50;;;;;;;15.07;2.90;;;12.90;99.90;;;;;;5019612;28;20049;-82
2023/06/28 00:55:15;;;;;;;7.32;2.22;;;12.90;99.90;;;;;;5017712;28;20053;-82
2023/06/28 00:57:41;;;;;;;14.27;2.70;;;12.90;99.90;;;;;;5021302;28;20046;-81
2023/06/28 01:00:11;;;;;;;10.93;2.85;;;12.80;99.90;;;;;;5016063;28;20400;-81
2023/06/28 01:02:41;;;;;;;6.30;2.50;;;12.80;99.90;;;;;;5015176;28;20041;-82
2023/06/28 01:05:11;;;;;;;7.28;2.92;;;12.80;99.90;;;;;;5014678;28;20037;-82
2023/06/28 01:07:37;;;;;;;8.30;3.38;;;12.80;99.90;;;;;;5016099;28;20060;-82
2023/06/28 01:10:05;;;;;;;9.48;3.10;;;12.80;99.90;;;;;;5015047;28;20030;-82
2023/06/28 01:12:31;;;;;;;6.68;2.25;;;12.80;99.90;;;;;;5014642;28;20056;-82
2023/06/28 01:14:56;;;;;;;7.63;2.60;;;12.80;99.90;;;;;;5006941;28;20046;-82
2023/06/28 01:17:22;;;;;;;6.18;3.35;;;12.80;99.90;;;;;;5016420;28;20960;-81
2023/06/28 01:19:48;;;;;;;7.88;3.13;;;12.90;99.90;;;;;;5018150;28;20038;-82
2023/06/28 01:22:14;;;;;;;6.57;3.85;;;13.00;99.90;;;;;;5016779;28;20041;-81
2023/06/28 01:24:41;;;;;;;8.95;3.65;;;13.10;99.90;;;;;;5012530;28;20064;-82
2023/06/28 01:27:09;;;;;;;10.38;3.20;;;13.10;99.90;;;;;;5015619;28;20034;-82
2023/06/28 01:29:36;;;;;;;8.70;2.97;;;13.20;99.90;;;;;;5020926;28;20061;-82
2023/06/28 01:32:04;;;;;;;9.48;2.97;;;13.00;99.90;;;;;;5012864;28;20096;-81
2023/06/28 01:34:29;;;;;;;5.93;2.53;;;12.90;99.90;;;;;;5013321;28;20045;-82
2023/06/28 01:37:00;;;;;;;8.10;2.38;;;12.80;99.90;;;;;;5011509;28;20523;-82
2023/06/28 01:39:26;;;;;;;3.88;2.38;;;12.60;99.90;;;;;;5003388;28;20045;-82
2023/06/28 01:41:53;;;;;;;4.78;2.53;;;12.60;99.90;;;;;;5016320;28;20041;-82
2023/06/28 01:44:20;;;;;;;6.45;2.38;;;12.50;99.90;;;;;;5011001;28;20041;-82
2023/06/28 01:46:47;;;;;;;7.00;2.60;;;12.60;99.90;;;;;;5013620;28;20465;-82
2023/06/28 01:49:12;;;;;;;6.72;2.80;;;12.60;99.90;;;;;;5018534;28;20046;-82
2023/06/28 01:51:39;;;;;;;5.93;3.22;;;12.60;99.90;;;;;;5013429;28;20053;-81
2023/06/28 01:54:05;;;;;;;6.82;3.40;;;12.60;99.90;;;;;;5012576;28;20066;-81
2023/06/28 01:56:31;;;;;;;5.70;3.60;;;12.70;99.90;;;;;;5016131;28;20050;-81
2023/06/28 01:58:56;;;;;;;5.03;3.63;;;12.70;99.90;;;;;;5020962;28;20069;-83
2023/06/28 02:01:22;;;;;;;7.07;4.90;;;12.70;99.90;;;;;;5012284;28;20449;-82
2023/06/28 02:03:47;;;;;;;7.10;3.92;;;12.70;99.90;;;;;;5011428;28;20079;-82
2023/06/28 02:06:14;;;;;;;9.82;3.47;;;12.60;99.90;;;;;;5014751;28;20045;-81
2023/06/28 02:08:40;;;;;;;7.05;4.38;;;12.70;99.90;;;;;;5019108;28;20041;-82
2023/06/28 02:11:05;;;;;;;7.13;4.22;;;12.70;99.90;;;;;;5011831;28;20034;-81
2023/06/28 02:13:31;;;;;;;6.50;4.22;;;12.70;99.90;;;;;;5017555;28;20064;-82
2023/06/28 02:15:56;;;;;;;7.45;4.65;;;12.70;99.90;;;;;;5018714;28;20129;-82
2023/06/28 02:18:24;;;;;;;6.57;3.60;;;12.80;99.90;;;;;;5012305;28;20467;-82
2023/06/28 02:20:54;;;;;;;6.57;3.88;;;12.90;99.90;;;;;;5014430;28;20052;-82
2023/06/28 02:23:20;;;;;;;9.85;4.28;;;13.00;99.90;;;;;;5014942;28;20169;-83
2023/06/28 02:25:45;;;;;;;6.32;4.10;;;13.00;99.90;;;;;;5014109;28;20038;-82
2023/06/28 02:28:11;;;;;;;6.82;3.63;;;13.00;99.90;;;;;;5020114;28;20048;-82
2023/06/28 02:30:37;;;;;;;9.73;4.53;;;13.10;99.90;;;;;;5015510;28;20046;-83
2023/06/28 02:33:02;;;;;;;6.60;3.53;;;13.20;99.90;;;;;;5016663;28;20046;-82
2023/06/28 02:35:28;;;;;;;5.70;3.97;;;13.30;99.90;;;;;;5012535;28;20048;-82
2023/06/28 02:37:53;;;;;;;8.10;4.65;;;13.20;99.90;;;;;;5012136;28;20186;-81
2023/06/28 02:40:19;;;;;;;11.10;4.32;;;13.20;99.90;;;;;;5015684;28;20042;-82
2023/06/28 02:42:45;;;;;;;9.80;4.40;;;13.20;99.90;;;;;;5012739;28;20046;-82
2023/06/28 02:45:10;;;;;;;6.57;4.13;;;13.20;99.90;;;;;;5025657;28;20081;-82
2023/06/28 02:47:37;;;;;;;8.07;3.83;;;13.30;99.90;;;;;;5018225;28;20115;-81
2023/06/28 02:50:05;;;;;;;10.23;4.05;;;13.30;99.90;;;;;;5024698;28;20092;-82
2023/06/28 02:52:31;;;;;;;4.85;4.25;;;13.30;99.90;;;;;;5017358;28;20522;-81
2023/06/28 02:54:57;;;;;;;6.03;3.70;;;13.40;99.90;;;;;;5024093;28;20069;-82
2023/06/28 02:57:22;;;;;;;7.35;4.13;;;13.50;99.90;;;;;;5019071;28;20070;-82
2023/06/28 02:59:48;;;;;;;8.60;4.38;;;13.50;99.90;;;;;;5019342;28;20606;-81
2023/06/28 03:02:17;;;;;;;8.05;3.67;;;13.50;99.90;;;;;;5017404;28;20492;-81
2023/06/28 03:04:42;;;;;;;6.57;3.78;;;13.50;99.90;;;;;;4997535;28;20046;-81
2023/06/28 03:07:17;;;;;;;8.98;3.97;;;13.60;99.90;;;;;;5016155;28;20038;-81
2023/06/28 03:09:43;;;;;;;9.45;4.63;;;13.60;99.90;;;;;;5018629;28;20045;-82
2023/06/28 03:12:10;;;;;;;8.35;3.78;;;13.70;99.90;;;;;;5016322;28;20145;-82
2023/06/28 03:14:36;;;;;;;13.65;5.10;;;13.70;99.90;;;;;;5014299;28;20042;-83
2023/06/28 03:17:02;;;;;;;7.18;3.67;;;13.70;99.90;;;;;;5013500;28;20041;-83
2023/06/28 03:19:27;;;;;;;6.47;4.00;;;13.70;99.90;;;;;;5021061;28;20038;-83
2023/06/28 03:21:53;;;;;;;6.63;3.75;;;13.70;99.90;;;;;;5018470;28;20075;-83
2023/06/28 03:24:18;;;;;;;7.95;3.28;;;13.70;99.90;;;;;;5015645;28;20030;-83
2023/06/28 03:26:44;;;;;;;7.65;3.80;;;13.80;99.90;;;;;;5023435;28;20049;-83
2023/06/28 03:29:10;;;;;;;7.90;3.38;;;13.90;99.90;;;;;;5010131;28;20043;-83
2023/06/28 03:31:35;;;;;;;7.70;4.00;;;13.90;99.90;;;;;;5018598;28;20447;-82
2023/06/28 03:34:01;;;;;;;7.50;4.53;;;13.90;99.90;;;;;;5014067;28;20397;-83
2023/06/28 03:36:27;;;;;;;11.43;3.38;;;13.90;99.90;;;;;;5019073;28;20072;-83
2023/06/28 03:38:54;;;;;;;6.88;3.33;;;13.90;99.90;;;;;;5017820;28;20045;-83
2023/06/28 03:41:19;;;;;;;7.25;3.65;;;14.00;99.90;;;;;;5013060;28;20046;-83
2023/06/28 03:43:45;;;;;;;7.15;3.38;;;13.90;99.90;;;;;;5021496;28;20566;-84
2023/06/28 03:46:10;;;;;;;7.97;3.75;;;14.00;99.90;;;;;;5013155;28;20034;-84
2023/06/28 03:48:36;;;;;;;7.68;3.63;;;14.00;99.90;;;;;;5012974;28;20405;-83
2023/06/28 03:51:02;;;;;;;7.78;3.47;;;14.00;99.90;;;;;;5017492;28;20037;-82
2023/06/28 03:53:27;;;;;;;5.70;3.58;;;14.00;99.90;;;;;;5015130;28;20034;-82
2023/06/28 03:55:53;;;;;;;9.45;4.22;;;14.10;99.90;;;;;;5016476;28;20096;-82
2023/06/28 03:58:19;;;;;;;6.68;3.40;;;14.20;99.90;;;;;;5021629;28;20049;-82
2023/06/28 04:00:44;;;;;;;8.75;3.33;;;14.20;99.90;;;;;;5011785;28;20041;-82
2023/06/28 04:03:10;;;;;;;7.75;3.70;;;14.20;99.90;;;;;;5015377;28;20096;-82
2023/06/28 04:05:35;;;;;;;8.98;3.88;;;14.20;99.90;;;;;;5012669;28;20036;-81
2023/06/28 04:08:02;;;;;;;6.75;3.70;;;14.20;99.90;;;;;;5016986;28;20052;-83
2023/06/28 04:10:27;;;;;;;7.43;3.58;;;14.20;99.90;;;;;;5017053;28;20042;-82
2023/06/28 04:12:53;;;;;;;8.05;4.57;;;14.20;99.90;;;;;;5024731;28;20108;-83
2023/06/28 04:15:19;;;;;;;7.50;3.97;;;14.30;99.90;;;;;;5016289;28;20038;-83
2023/06/28 04:17:44;;;;;;;9.35;4.32;;;14.30;99.90;;;;;;5021542;28;20042;-81
2023/06/28 04:20:10;;;;;;;5.72;3.35;;;14.30;99.90;;;;;;5007184;28;20048;-81
2023/06/28 04:22:36;;;;;;;6.63;4.22;;;14.40;99.90;;;;;;5013143;28;20042;-81
2023/06/28 04:25:02;;;;;;;6.82;4.20;;;14.40;99.90;;;;;;5015537;28;20502;-80
2023/06/28 04:27:28;;;;;;;5.00;3.70;;;14.40;99.90;;;;;;5015125;28;20064;-82
2023/06/28 04:29:53;;;;;;;5.40;4.07;;;14.50;99.90;;;;;;5015532;28;20038;-83
2023/06/28 04:32:25;;;;;;;9.27;3.63;;;14.50;99.90;;;;;;5011473;28;20045;-81
2023/06/28 04:34:53;;;;;;;5.32;3.97;;;14.60;99.90;;;;;;5018282;28;20068;-82
2023/06/28 04:37:31;;;;;;;6.90;3.25;;;14.60;99.90;;;;;;5018548;28;20104;-81
2023/06/28 04:40:01;;;;;;;7.30;3.55;;;14.60;99.90;;;;;;5015817;28;20049;-82
2023/06/28 04:42:26;;;;;;;7.18;3.45;;;14.60;99.90;;;;;;5014014;28;20033;-82
2023/06/28 04:44:54;;;;;;;7.05;3.97;;;14.60;99.90;;;;;;5014336;28;20116;-82
2023/06/28 04:47:20;;;;;;;7.75;3.30;;;14.70;99.90;;;;;;5018777;28;20183;-81
2023/06/28 04:49:50;;;;;;;4.63;3.35;;;14.70;99.90;;;;;;5018473;28;20952;-83
2023/06/28 04:52:18;;;;;;;7.65;3.80;;;14.80;99.90;;;;;;5009992;28;20043;-82
2023/06/28 04:54:44;;;;;;;7.53;4.03;;;14.80;99.90;;;;;;5019199;28;20050;-84
2023/06/28 04:57:12;;;;;;;5.15;3.40;;;14.80;99.90;;;;;;5008632;28;20049;-85
2023/06/28 04:59:38;;;;;;;8.18;3.30;;;14.90;99.90;;;;;;5010072;28;20518;-83
2023/06/28 05:02:05;;;;;;;10.07;4.15;;;14.90;99.90;;;;;;5015175;28;20033;-82
2023/06/28 05:04:34;;;;;;;5.43;3.45;;;15.00;99.90;;;;;;5020355;28;20077;-83
2023/06/28 05:07:04;;;;;;;5.68;3.78;;;15.00;99.90;;;;;;5014791;28;20045;-83
2023/06/28 05:09:31;;;;;;;6.30;3.33;;;15.10;99.90;;;;;;5016769;28;20053;-81
2023/06/28 05:11:57;;;;;;;10.20;4.63;;;15.10;99.90;;;;;;5011072;28;20037;-82
2023/06/28 05:14:26;;;;;;;6.85;3.92;;;15.20;99.90;;;;;;5015013;28;20400;-82
2023/06/28 05:16:52;;;;;;;6.00;4.40;;;15.20;99.90;;;;;;5008354;28;20095;-83
2023/06/28 05:19:18;;;;;;;7.47;4.40;;;15.30;99.90;;;;;;5010477;28;20045;-82
2023/06/28 05:21:44;;;;;;;8.13;4.25;;;15.30;99.90;;;;;;5012324;28;20048;-83
2023/06/28 05:24:09;;;;;;;7.18;4.13;;;15.30;99.90;;;;;;5015626;28;20052;-82
2023/06/28 05:26:35;;;;;;;5.53;3.45;;;15.40;99.90;;;;;;5017146;28;20093;-81
2023/06/28 05:29:00;;;;;;;7.53;3.20;;;15.40;99.90;;;;;;5011056;28;20073;-82
2023/06/28 05:31:26;;;;;;;4.63;3.13;;;15.40;99.90;;;;;;5015140;28;20116;-82
2023/06/28 05:33:51;;;;;;;8.60;3.88;;;15.50;99.90;;;;;;5021527;28;20511;-81
2023/06/28 05:36:20;;;;;;;4.13;3.00;;;15.50;99.90;;;;;;5016302;28;20034;-82
2023/06/28 05:38:46;;;;;;;6.03;2.92;;;15.50;99.90;;;;;;5017261;28;20500;-80
2023/06/28 05:41:15;;;;;;;7.05;3.28;;;15.60;99.90;;;;;;5020408;28;20116;-81
2023/06/28 05:43:43;;;;;;;7.25;2.67;;;15.60;99.90;;;;;;5019466;28;20050;-82
2023/06/28 05:46:09;;;;;;;10.05;3.88;;;15.60;99.90;;;;;;5018516;28;20558;-82
2023/06/28 05:48:34;;;;;;;5.28;2.55;;;15.60;99.90;;;;;;5015187;28;20049;-82
2023/06/28 05:51:00;;;;;;;4.10;2.70;;;15.60;99.90;;;;;;5019459;28;20505;-82
2023/06/28 05:53:26;;;;;;;4.78;2.55;;;15.60;99.90;;;;;;5015397;28;20045;-82
2023/06/28 05:55:51;;;;;;;5.15;3.08;;;15.70;99.90;;;;;;5013374;28;20107;-82
2023/06/28 05:58:18;;;;;;;3.95;2.50;;;15.70;99.90;;;;;;5007839;28;20080;-82
2023/06/28 06:00:44;;;;;;;8.73;3.20;;;15.70;99.90;;;;;;5014423;28;20045;-82
2023/06/28 06:03:09;;;;;;;7.75;2.90;;;15.70;99.90;;;;;;5008868;28;20500;-82
2023/06/28 06:05:36;;;;;;;5.10;2.55;;;15.80;99.90;;;;;;5011325;28;20049;-82
2023/06/28 06:08:02;;;;;;;5.30;2.95;;;15.80;99.90;;;;;;5017446;28;20415;-82
2023/06/28 06:10:27;;;;;;;8.38;3.58;;;15.90;99.90;;;;;;5016518;28;20053;-80
2023/06/28 06:12:54;;;;;;;4.40;2.72;;;16.00;99.90;;;;;;5002772;28;20500;-82
2023/06/28 06:15:20;;;;;;;6.32;2.90;;;16.00;99.90;;;;;;4998096;28;20050;-81
2023/06/28 06:17:46;;;;;;;9.43;3.80;;;16.10;99.90;;;;;;5005965;28;20065;-83
2023/06/28 06:20:15;;;;;;;6.40;3.67;;;16.10;99.90;;;;;;5009871;28;20073;-83
2023/06/28 06:22:41;;;;;;;5.28;3.20;;;16.10;99.90;;;;;;5012129;28;21061;-80
2023/06/28 06:25:07;;;;;;;6.50;3.25;;;16.20;99.90;;;;;;5011533;28;20176;-83
2023/06/28 06:27:32;;;;;;;4.50;3.17;;;16.20;99.90;;;;;;5013004;28;20057;-83
2023/06/28 06:29:58;;;;;;;6.15;3.72;;;16.30;99.90;;;;;;5014045;28;20037;-83
2023/06/28 06:32:24;;;;;;;7.40;3.78;;;16.20;99.90;;;;;;5006089;28;20488;-84
2023/06/28 06:34:49;;;;;;;7.53;3.90;;;16.30;99.90;;;;;;5011168;28;20041;-83
2023/06/28 06:37:15;;;;;;;6.85;3.95;;;16.30;99.90;;;;;;5013282;28;20042;-81
2023/06/28 06:39:41;;;;;;;7.50;3.65;;;16.30;99.90;;;;;;5015904;28;20095;-83
2023/06/28 06:42:07;;;;;;;5.18;2.95;;;16.30;99.90;;;;;;5011728;28;20042;-83
2023/06/28 06:44:33;;;;;;;9.88;4.28;;;16.40;99.90;;;;;;5016096;28;20053;-82
2023/06/28 06:46:58;;;;;;;9.38;4.43;;;16.40;99.90;;;;;;5013040;28;20038;-82
2023/06/28 06:49:24;;;;;;;6.82;3.63;;;16.40;99.90;;;;;;5004355;28;20495;-81
2023/06/28 06:51:49;;;;;;;8.85;4.28;;;16.40;99.90;;;;;;5016057;28;20042;-82
2023/06/28 06:54:15;;;;;;;8.73;4.93;;;16.40;99.90;;;;;;5011331;28;20835;-81
2023/06/28 06:56:40;;;;;;;6.63;3.65;;;16.40;99.90;;;;;;5014815;28;20134;-82
2023/06/28 06:59:06;;;;;;;9.88;4.30;;;16.50;99.90;;;;;;5015378;28;20183;-82
2023/06/28 07:01:34;;;;;;;10.13;4.45;;;16.60;99.90;;;;;;5006369;28;20455;-79
2023/06/28 07:04:00;;;;;;;9.57;4.30;;;16.60;99.90;;;;;;5015176;28;20046;-82
2023/06/28 07:06:26;;;;;;;6.88;3.20;;;16.60;99.90;;;;;;5009265;28;20038;-82
2023/06/28 07:08:51;;;;;;;6.47;3.70;;;16.60;99.90;;;;;;5014690;28;20049;-83
2023/06/28 07:11:17;;;;;;;9.32;4.53;;;16.60;99.90;;;;;;5017509;28;20041;-83
2023/06/28 07:13:42;;;;;;;9.07;4.43;;;16.60;99.90;;;;;;5013665;28;20045;-82
2023/06/28 07:16:08;;;;;;;9.32;4.40;;;16.60;99.90;;;;;;5013246;28;20041;-79
2023/06/28 07:18:33;;;;;;;9.13;4.18;;;16.80;99.90;;;;;;5010428;28;20488;-82
2023/06/28 07:20:59;;;;;;;7.57;3.90;;;16.60;99.90;;;;;;5012520;28;20124;-82
2023/06/28 07:23:25;;;;;;;10.07;4.55;;;16.70;99.90;;;;;;5013462;28;20548;-82
2023/06/28 07:25:50;;;;;;;8.00;3.80;;;16.70;99.90;;;;;;5010140;28;20057;-83
2023/06/28 07:28:16;;;;;;;8.07;4.40;;;16.70;99.90;;;;;;5012356;28;20045;-83
2023/06/28 07:30:55;;;;;;;7.47;3.95;;;16.70;99.90;;;;;;5012547;28;20046;-81
2023/06/28 07:33:25;;;;;;;8.55;4.38;;;16.70;99.90;;;;;;5011742;28;20165;-82
2023/06/28 07:35:51;;;;;;;9.32;4.65;;;16.70;99.90;;;;;;5009539;28;20052;-83
2023/06/28 07:38:21;;;;;;;7.07;4.57;;;16.70;99.90;;;;;;5012324;28;20045;-83
2023/06/28 07:40:47;;;;;;;9.20;5.05;;;16.80;99.90;;;;;;5011744;28;20044;-83
2023/06/28 07:43:13;;;;;;;7.47;4.13;;;16.70;99.90;;;;;;5017665;28;20121;-82
2023/06/28 07:45:40;;;;;;;7.80;5.03;;;16.70;99.90;;;;;;5011169;28;20048;-84
2023/06/28 07:48:06;;;;;;;10.73;5.93;;;16.70;99.90;;;;;;5006458;28;20038;-81
2023/06/28 07:50:32;;;;;;;7.57;4.70;;;16.70;99.90;;;;;;5011932;28;20126;-83
2023/06/28 07:52:57;;;;;;;8.55;4.80;;;16.70;99.90;;;;;;5010906;28;20125;-82
2023/06/28 07:55:23;;;;;;;8.38;4.47;;;16.60;99.90;;;;;;5012423;28;20098;-83
2023/06/28 07:57:48;;;;;;;8.05;4.53;;;16.60;99.90;;;;;;5013246;28;20531;-81
2023/06/28 08:00:15;;;;;;;11.07;5.30;;;16.60;99.90;;;;;;5013648;28;20136;-83
2023/06/28 08:02:40;;;;;;;9.30;4.90;;;16.60;99.90;;;;;;5010274;28;20046;-80
2023/06/28 08:05:07;;;;;;;7.07;4.55;;;16.60;99.90;;;;;;5012460;28;20591;-83
2023/06/28 08:07:34;;;;;;;8.23;4.60;;;16.70;99.90;;;;;;5010647;28;20496;-82
2023/06/28 08:09:59;;;;;;;7.53;5.13;;;16.70;99.90;;;;;;5010890;28;20050;-82
2023/06/28 08:12:25;;;;;;;8.45;5.28;;;16.70;99.90;;;;;;5014801;28;20061;-82
2023/06/28 08:14:50;;;;;;;10.43;5.35;;;16.60;99.90;;;;;;5013241;28;20049;-83
2023/06/28 08:17:16;;;;;;;7.82;5.20;;;16.60;99.90;;;;;;5010453;28;20132;-82
2023/06/28 08:19:41;;;;;;;8.32;5.45;;;16.70;99.90;;;;;;5008527;28;20042;-81
2023/06/28 08:22:07;;;;;;;6.70;4.70;;;16.70;99.90;;;;;;5009176;28;20037;-83
2023/06/28 08:24:33;;;;;;;9.48;5.28;;;16.70;99.90;;;;;;5005724;28;20030;-82
2023/06/28 08:26:58;;;;;;;7.22;5.30;;;16.80;99.90;;;;;;5007888;28;20030;-82
2023/06/28 08:29:25;;;;;;;8.60;5.78;;;16.80;99.90;;;;;;5011235;28;20052;-82
2023/06/28 08:31:50;;;;;;;7.60;5.28;;;16.90;99.90;;;;;;4997727;28;20048;-83
2023/06/28 08:34:16;;;;;;;8.63;6.07;;;16.90;99.90;;;;;;4990998;28;20057;-82
2023/06/28 08:36:42;;;;;;;5.88;4.78;;;16.90;99.90;;;;;;5012739;28;20132;-83
2023/06/28 08:39:07;;;;;;;6.10;5.18;;;16.90;99.90;;;;;;5012595;28;20034;-82
2023/06/28 08:41:35;;;;;;;8.73;5.72;;;16.90;99.90;;;;;;5009977;28;20095;-83
2023/06/28 08:44:02;;;;;;;9.27;6.35;;;16.90;99.90;;;;;;5007530;28;20049;-81
2023/06/28 08:46:29;;;;;;;12.95;6.22;;;17.00;99.90;;;;;;5008663;28;20052;-82
2023/06/28 08:48:55;;;;;;;12.60;6.75;;;17.00;99.90;;;;;;5007790;28;20038;-81
2023/06/28 08:51:21;;;;;;;7.75;6.18;;;17.10;99.90;;;;;;5008735;28;20133;-82
2023/06/28 08:53:48;;;;;;;8.18;6.25;;;17.10;99.90;;;;;;5009456;28;20153;-83
2023/06/28 08:56:15;;;;;;;10.75;6.45;;;17.20;99.90;;;;;;5012609;28;20048;-83
2023/06/28 08:58:41;;;;;;;8.40;6.00;;;17.30;99.90;;;;;;5008832;28;20060;-81
2023/06/28 09:01:08;;;;;;;9.55;7.00;;;17.30;99.90;;;;;;4991755;28;20148;-81
2023/06/28 09:03:40;;;;;;;12.35;7.57;;;17.30;99.90;;;;;;5011723;28;20046;-83
2023/06/28 09:06:06;;;;;;;8.23;6.70;;;17.30;99.90;;;;;;5012565;28;20042;-82
2023/06/28 09:08:33;;;;;;;10.55;7.53;;;17.30;99.90;;;;;;5008181;28;20046;-83
2023/06/28 09:11:02;;;;;;;13.25;7.43;;;17.40;99.90;;;;;;5008995;28;20410;-83
2023/06/28 09:13:28;;;;;;;9.65;7.65;;;17.40;99.90;;;;;;5011628;28;20508;-83
2023/06/28 09:15:55;;;;;;;13.20;8.52;;;17.40;99.90;;;;;;5008728;28;20041;-82
2023/06/28 09:18:21;;;;;;;12.48;8.50;;;17.40;99.90;;;;;;5009151;28;20058;-84
2023/06/28 09:20:54;;;;;;;11.82;8.93;;;17.50;99.90;;;;;;5008849;28;20049;-83
2023/06/28 09:23:24;;;;;;;14.02;8.55;;;17.50;99.90;;;;;;5003876;28;20065;-83
2023/06/28 09:25:50;;;;;;;18.50;8.98;;;17.50;99.90;;;;;;5012123;28;20088;-84
2023/06/28 09:28:16;;;;;;;15.88;8.75;;;17.60;99.90;;;;;;5010083;28;20073;-83
2023/06/28 09:30:42;;;;;;;13.02;8.48;;;17.60;99.90;;;;;;5010521;28;20048;-83
2023/06/28 09:33:07;;;;;;;13.15;9.00;;;17.60;99.90;;;;;;5006082;28;20067;-82
2023/06/28 09:35:36;;;;;;;14.63;9.20;;;17.70;99.90;;;;;;5010772;28;20049;-82
2023/06/28 09:38:07;;;;;;;16.45;9.68;;;17.60;99.90;;;;;;5006925;28;20136;-83
2023/06/28 09:40:36;;;;;;;14.75;8.85;;;17.70;99.90;;;;;;5012483;28;20841;-83
2023/06/28 09:43:02;;;;;;;13.68;9.18;;;17.70;99.90;;;;;;5010209;28;20491;-82
2023/06/28 09:45:35;;;;;;;14.48;9.20;;;17.70;99.90;;;;;;5010362;28;20053;-83
2023/06/28 09:48:02;;;;;;;12.38;9.70;;;17.60;99.90;;;;;;5011845;28;20428;-82
2023/06/28 09:50:46;;;;;;;13.15;9.02;;;17.60;99.90;;;;;;5012774;28;20052;-83
2023/06/28 09:53:15;;;;;;;12.20;9.57;;;17.60;99.90;;;;;;5004199;28;20092;-82
2023/06/28 09:55:42;;;;;;;16.00;10.05;;;17.60;99.90;;;;;;5010974;28;20124;-82
2023/06/28 09:58:18;;;;;;;13.43;9.63;;;17.60;99.90;;;;;;5011654;28;20049;-82
2023/06/28 10:00:46;;;;;;;13.90;9.65;;;17.60;99.90;;;;;;5015110;28;20049;-83
2023/06/28 10:03:15;;;;;;;12.40;9.57;;;17.60;99.90;;;;;;5008097;28;20069;-83
2023/06/28 10:05:42;;;;;;;13.88;9.43;;;17.60;99.90;;;;;;5012397;28;20041;-83
2023/06/28 10:08:14;;;;;;;17.23;9.93;;;17.60;99.90;;;;;;5010689;28;20128;-81
2023/06/28 10:10:41;;;;;;;12.02;8.95;;;17.60;99.90;;;;;;5030394;28;20432;-83
2023/06/28 10:13:16;;;;;;;11.98;9.48;;;17.70;99.90;;;;;;5015234;28;20039;-82
2023/06/28 10:15:55;;;;;;;10.93;9.15;;;17.80;99.90;;;;;;5016349;28;20041;-80
2023/06/28 10:18:22;;;;;;;12.98;9.32;;;17.80;99.90;;;;;;5019255;28;20064;-83
2023/06/28 10:20:48;;;;;;;11.00;9.35;;;17.80;99.90;;;;;;5013134;28;20053;-79
2023/06/28 10:23:15;;;;;;;14.52;9.55;;;17.90;99.90;;;;;;5016612;28;20041;-82
2023/06/28 10:25:44;;;;;;;12.88;9.57;;;17.80;99.90;;;;;;5017029;28;20044;-82
2023/06/28 10:28:10;;;;;;;11.25;8.88;;;17.80;99.90;;;;;;5017731;28;20053;-82
2023/06/28 10:30:38;;;;;;;12.60;9.15;;;17.90;99.90;;;;;;5016218;28;20124;-80
2023/06/28 10:33:05;;;;;;;10.63;8.65;;;18.00;99.90;;;;;;5011838;28;20480;-80
2023/06/28 10:35:31;;;;;;;11.30;8.30;;;18.00;99.90;;;;;;5014168;28;20148;-82
2023/06/28 10:38:12;;;;;;;13.57;9.48;;;18.10;99.90;;;;;;5010053;28;20555;-82
2023/06/28 10:40:39;;;;;;;10.77;8.55;;;18.20;99.90;;;;;;4994105;28;20046;-82
2023/06/28 10:43:04;;;;;;;10.05;8.60;;;18.30;99.90;;;;;;5010409;28;20125;-83
2023/06/28 10:45:37;;;;;;;9.93;7.53;;;18.30;99.90;;;;;;5011745;28;20176;-83
2023/06/28 10:48:04;;;;;;;10.35;8.32;;;18.30;99.90;;;;;;5016406;28;20029;-83
2023/06/28 10:50:39;;;;;;;11.60;8.02;;;18.30;99.90;;;;;;5010672;28;20760;-84
2023/06/28 10:53:05;;;;;;;8.63;7.25;;;18.30;99.90;;;;;;5010325;28;20068;-82
2023/06/28 10:55:33;;;;;;;10.63;8.13;;;18.30;99.90;;;;;;5011696;28;20038;-83
2023/06/28 10:58:40;;;;;;;8.73;7.88;;;18.30;99.90;;;;;;5013690;28;20530;-84
2023/06/28 11:01:07;;;;;;;11.07;9.10;;;18.20;99.90;;;;;;5011172;28;20547;-84
2023/06/28 11:03:44;;;;;;;9.23;7.72;;;18.30;99.90;;;;;;5012490;28;20048;-85
2023/06/28 11:06:11;;;;;;;9.02;8.13;;;18.20;99.90;;;;;;5013266;28;20678;-85
2023/06/28 11:08:41;;;;;;;10.00;8.50;;;18.30;99.90;;;;;;5012049;28;20499;-84
2023/06/28 11:11:21;;;;;;;9.15;8.10;;;18.30;99.90;;;;;;5014999;28;20099;-86
2023/06/28 11:13:49;;;;;;;9.77;8.77;;;18.30;99.90;;;;;;5010891;28;20169;-84
2023/06/28 11:16:20;;;;;;;9.85;8.90;;;18.30;99.90;;;;;;5011930;28;20069;-84
2023/06/28 11:18:47;;;;;;;9.63;8.57;;;18.30;99.90;;;;;;5010225;28;20034;-84
2023/06/28 11:21:15;;;;;;;11.02;9.98;;;18.40;99.90;;;;;;5014058;28;21357;-84
2023/06/28 11:23:42;;;;;;;10.38;9.30;;;18.40;99.90;;;;;;5015635;28;20041;-83
2023/06/28 11:26:18;;;;;;;9.48;8.38;;;18.40;99.90;;;;;;5010946;28;20048;-85
2023/06/28 11:29:06;;;;;;;;;;;18.50;99.90;;;;;;5009411;28;20369;-85
2023/06/28 11:31:41;;;;;;;11.27;10.18;;;18.50;99.90;;;;;;5009651;28;19925;-84
2023/06/28 11:34:10;;;;;;;9.57;8.63;;;18.50;99.90;;;;;;5012248;28;20077;-85
2023/06/28 11:36:36;;;;;;;10.68;9.57;;;18.60;99.90;;;;;;5013068;28;20044;-85
2023/06/28 11:39:03;;;;;;;11.88;9.20;;;18.60;99.90;;;;;;5025474;28;20404;-84
2023/06/28 11:41:34;;;;;;;11.30;10.20;;;18.60;99.90;;;;;;5013024;28;20144;-84
2023/06/28 11:44:04;;;;;;;13.02;10.50;;;18.70;99.90;;;;;;5011929;28;20045;-84
2023/06/28 11:46:32;;;;;;;12.38;11.13;;;18.70;99.90;;;;;;5010952;28;20073;-85
2023/06/28 11:49:01;;;;;;;11.32;10.23;;;18.70;99.90;;;;;;5013028;28;20045;-85
2023/06/28 11:51:27;;;;;;;11.95;10.68;;;18.70;99.90;;;;;;5006294;28;20130;-84
2023/06/28 11:53:56;;;;;;;13.15;11.85;;;18.60;99.90;;;;;;5009015;28;20041;-84
2023/06/28 11:56:39;;;;;;;12.43;11.27;;;18.70;99.90;;;;;;5010391;28;20380;-85
2023/06/28 11:59:15;;;;;;;13.93;11.45;;;18.60;99.90;;;;;;5013056;28;20042;-84
2023/06/28 12:01:41;;;;;;;14.35;12.95;;;18.60;99.90;;;;;;5013477;28;20117;-83
2023/06/28 12:04:13;;;;;;;13.80;12.40;;;18.60;99.90;;;;;;5014977;28;20073;-84
2023/06/28 12:06:41;;;;;;;13.52;12.18;;;18.60;99.90;;;;;;4996283;28;20049;-84
2023/06/28 12:09:24;;;;;;;13.73;12.43;;;18.60;99.90;;;;;;5006703;28;20124;-84
2023/06/28 12:11:58;;;;;;;14.65;13.15;;;18.60;99.90;;;;;;5009343;28;20500;-84
2023/06/28 12:14:25;;;;;;;15.35;13.85;;;18.60;99.90;;;;;;5008629;28;20761;-84
2023/06/28 12:16:57;;;;;;;15.20;13.18;;;18.60;99.90;;;;;;5014348;28;20083;-84
2023/06/28 12:19:28;;;;;;;16.00;14.30;;;18.70;99.90;;;;;;5010216;28;20072;-84
2023/06/28 12:21:54;;;;;;;17.35;15.70;;;18.70;99.90;;;;;;5011130;28;20091;-85
2023/06/28 12:24:24;;;;;;;18.55;16.50;;;18.80;99.90;;;;;;5018398;28;20033;-85
2023/06/28 12:27:01;;;;;;;17.83;15.18;;;18.80;99.90;;;;;;5015569;28;20088;-86
2023/06/28 12:29:31;;;;;;;18.30;16.40;;;18.80;99.90;;;;;;5010188;28;20091;-82
2023/06/28 12:32:04;;;;;;;17.05;15.13;;;18.90;99.90;;;;;;5013894;28;20714;-83
2023/06/28 12:34:34;;;;;;;16.67;15.00;;;18.90;99.90;;;;;;5012663;28;20500;-83
2023/06/28 12:37:08;;;;;;;20.30;16.40;;;18.90;99.90;;;;;;5009837;28;20050;-82
2023/06/28 12:39:36;;;;;;;18.55;16.65;;;18.90;99.90;;;;;;5014118;28;20072;-82
2023/06/28 12:42:02;;;;;;;18.95;17.00;;;18.90;99.90;;;;;;5012696;28;20454;-82
2023/06/28 12:44:28;;;;;;;18.50;16.70;;;18.90;99.90;;;;;;5009525;28;20046;-83